Time;durP1;ratioP1;P1;durP2;ratioP2;P2;SDS_P1;SDS_P2;PMS_P1;PMS_P2;Temp;Humidity;BMP_temperature;BMP_pressure;BME280_temperature;BME280_humidity;BME280_pressure;Samples;Min_cycle;Max_cycle;Signal;HPM_P1;HPM_P2
2021/10/23 00:00:31;;;;;;;10.90;3.30;;;7.10;99.90;;;;;;5033911;28;20045;-83
2021/10/23 00:02:56;;;;;;;13.93;2.20;;;7.00;99.90;;;;;;5033012;28;20052;-84
2021/10/23 00:05:22;;;;;;;8.02;2.70;;;7.00;99.90;;;;;;5034277;28;20108;-83
2021/10/23 00:07:47;;;;;;;13.32;3.08;;;7.00;99.90;;;;;;5033976;28;20377;-84
2021/10/23 00:10:13;;;;;;;13.63;2.95;;;6.90;99.90;;;;;;5032262;28;20385;-85
2021/10/23 00:12:39;;;;;;;13.40;3.22;;;7.00;99.90;;;;;;5034591;28;20064;-83
2021/10/23 00:15:06;;;;;;;8.82;2.65;;;7.00;99.90;;;;;;5034408;28;20493;-84
2021/10/23 00:17:31;;;;;;;8.77;2.50;;;7.00;99.90;;;;;;5033371;28;20025;-85
2021/10/23 00:20:01;;;;;;;5.97;1.95;;;7.10;99.90;;;;;;5033952;28;20031;-83
2021/10/23 00:22:28;;;;;;;10.93;2.65;;;7.10;99.90;;;;;;5032292;28;20485;-83
2021/10/23 00:24:53;;;;;;;4.95;2.28;;;7.00;99.90;;;;;;5033299;28;20108;-82
2021/10/23 00:27:19;;;;;;;8.18;2.90;;;7.10;99.90;;;;;;5032970;28;20057;-83
2021/10/23 00:29:44;;;;;;;8.10;2.20;;;7.10;99.90;;;;;;5033182;28;20029;-83
2021/10/23 00:32:10;;;;;;;7.38;2.50;;;7.10;99.90;;;;;;5034097;28;20049;-83
2021/10/23 00:34:36;;;;;;;6.93;2.08;;;7.10;99.90;;;;;;5034525;28;20071;-83
2021/10/23 00:37:02;;;;;;;9.27;2.50;;;7.10;99.90;;;;;;5034495;28;20462;-84
2021/10/23 00:39:27;;;;;;;6.85;2.92;;;7.10;99.90;;;;;;5034186;28;20539;-84
2021/10/23 00:41:53;;;;;;;12.40;2.08;;;7.10;99.90;;;;;;5035349;28;20021;-82
2021/10/23 00:44:35;;;;;;;9.15;1.98;;;7.20;99.90;;;;;;5034082;28;20033;-84
2021/10/23 00:47:06;;;;;;;6.85;2.38;;;7.10;99.90;;;;;;5033685;28;20041;-85
2021/10/23 00:49:33;;;;;;;34.88;4.93;;;7.10;99.90;;;;;;5034565;28;20033;-84
2021/10/23 00:52:01;;;;;;;16.60;2.85;;;7.10;99.90;;;;;;5032313;28;20029;-83
2021/10/23 00:54:27;;;;;;;10.82;2.13;;;7.10;99.90;;;;;;5036484;28;20122;-83
2021/10/23 00:56:54;;;;;;;5.60;1.83;;;7.10;99.90;;;;;;5033856;28;20569;-84
2021/10/23 00:59:21;;;;;;;8.70;2.10;;;7.10;99.90;;;;;;5034579;28;20093;-83
2021/10/23 01:01:47;;;;;;;5.30;1.80;;;7.10;99.90;;;;;;5038519;28;20021;-83
2021/10/23 01:04:13;;;;;;;9.73;1.73;;;7.10;99.90;;;;;;5049125;28;20052;-83
2021/10/23 01:06:38;;;;;;;7.30;2.47;;;7.00;99.90;;;;;;5037675;28;20017;-84
2021/10/23 01:09:06;;;;;;;9.32;2.22;;;7.00;99.90;;;;;;5033545;28;20034;-84
2021/10/23 01:11:34;;;;;;;8.88;2.78;;;7.00;99.90;;;;;;5033732;28;20028;-84
2021/10/23 01:14:00;;;;;;;9.52;1.92;;;6.90;99.90;;;;;;5048910;28;20036;-83
2021/10/23 01:16:26;;;;;;;9.10;2.03;;;6.80;99.90;;;;;;5035423;28;20027;-82
2021/10/23 01:18:52;;;;;;;3.58;1.77;;;6.90;99.90;;;;;;5050062;28;20041;-82
2021/10/23 01:21:22;;;;;;;6.70;2.63;;;6.70;99.90;;;;;;5034067;28;20018;-82
2021/10/23 01:23:49;;;;;;;8.52;2.58;;;6.70;99.90;;;;;;5033203;28;20057;-84
2021/10/23 01:26:15;;;;;;;9.48;2.58;;;6.70;99.90;;;;;;5031944;28;20075;-83
2021/10/23 01:28:40;;;;;;;10.82;2.70;;;6.70;99.90;;;;;;5032542;28;20413;-84
2021/10/23 01:31:06;;;;;;;8.02;2.30;;;6.70;99.90;;;;;;5032310;28;20030;-83
2021/10/23 01:33:33;;;;;;;7.28;1.75;;;6.60;99.90;;;;;;5032005;28;20080;-83
2021/10/23 01:36:13;;;;;;;9.07;1.88;;;6.60;99.90;;;;;;5032510;28;20029;-84
2021/10/23 01:38:39;;;;;;;9.25;2.55;;;6.60;99.90;;;;;;5032753;28;20072;-84
2021/10/23 01:41:06;;;;;;;4.65;1.38;;;6.60;99.90;;;;;;5031678;28;20026;-83
2021/10/23 01:43:33;;;;;;;7.00;1.65;;;6.60;99.90;;;;;;5032223;28;20076;-82
2021/10/23 01:45:59;;;;;;;12.32;1.73;;;6.50;99.90;;;;;;5032584;28;20040;-83
2021/10/23 01:48:25;;;;;;;20.05;2.83;;;6.50;99.90;;;;;;5032454;28;20033;-83
2021/10/23 01:50:50;;;;;;;6.80;1.75;;;6.50;99.90;;;;;;5032551;28;20088;-83
2021/10/23 01:53:16;;;;;;;7.50;1.50;;;6.50;99.90;;;;;;5032031;28;20532;-83
2021/10/23 01:55:42;;;;;;;7.28;1.20;;;6.50;99.90;;;;;;5033214;28;20492;-81
2021/10/23 01:58:09;;;;;;;7.07;2.03;;;6.50;99.90;;;;;;5036735;28;20486;-82
2021/10/23 02:00:35;;;;;;;12.23;2.13;;;6.50;99.90;;;;;;5032876;28;20013;-85
2021/10/23 02:03:01;;;;;;;8.88;2.50;;;6.50;99.90;;;;;;5031954;28;20032;-82
2021/10/23 02:05:26;;;;;;;7.95;2.38;;;6.50;99.90;;;;;;5032188;28;20068;-83
2021/10/23 02:07:52;;;;;;;11.93;1.85;;;6.50;99.90;;;;;;5032040;28;20029;-83
2021/10/23 02:10:17;;;;;;;8.55;2.25;;;6.50;99.90;;;;;;5033495;28;20056;-83
2021/10/23 02:12:43;;;;;;;10.65;2.60;;;6.50;99.90;;;;;;5032605;28;20389;-83
2021/10/23 02:15:09;;;;;;;5.80;1.80;;;6.60;99.90;;;;;;5034267;28;20695;-83
2021/10/23 02:17:35;;;;;;;14.45;2.53;;;6.50;99.90;;;;;;5036085;28;20053;-82
2021/10/23 02:20:03;;;;;;;8.15;1.95;;;6.50;99.90;;;;;;5036163;28;20100;-84
2021/10/23 02:22:28;;;;;;;9.65;1.90;;;6.50;99.90;;;;;;5035697;28;20037;-83
2021/10/23 02:24:54;;;;;;;10.38;1.40;;;6.50;99.90;;;;;;5036337;28;20106;-83
2021/10/23 02:27:19;;;;;;;7.72;1.63;;;6.50;99.90;;;;;;5035733;28;20053;-84
2021/10/23 02:29:45;;;;;;;6.70;1.60;;;6.50;99.90;;;;;;5034911;28;20064;-84
2021/10/23 02:32:10;;;;;;;7.05;1.90;;;6.40;99.90;;;;;;5034773;28;20056;-84
2021/10/23 02:34:36;;;;;;;5.68;1.75;;;6.40;99.90;;;;;;5034980;28;20029;-83
2021/10/23 02:37:02;;;;;;;5.65;1.42;;;6.40;99.90;;;;;;5034286;28;20052;-84
2021/10/23 02:39:27;;;;;;;7.47;3.17;;;6.40;99.90;;;;;;5035204;28;20112;-83
2021/10/23 02:41:53;;;;;;;9.90;2.05;;;6.40;99.90;;;;;;5035304;28;20017;-82
2021/10/23 02:44:18;;;;;;;6.10;2.20;;;6.40;99.90;;;;;;5034043;28;20057;-83
2021/10/23 02:46:44;;;;;;;9.80;2.58;;;6.40;99.90;;;;;;5034918;28;20013;-84
2021/10/23 02:49:10;;;;;;;5.57;1.95;;;6.40;99.90;;;;;;5034448;28;20049;-82
2021/10/23 02:51:36;;;;;;;7.60;1.88;;;6.30;99.90;;;;;;5033722;28;20370;-83
2021/10/23 02:54:02;;;;;;;9.68;3.10;;;6.30;99.90;;;;;;5034605;28;20044;-82
2021/10/23 02:56:27;;;;;;;10.30;2.72;;;6.30;99.90;;;;;;5034437;28;20026;-83
2021/10/23 02:58:53;;;;;;;9.48;2.22;;;6.30;99.90;;;;;;5034008;28;20035;-82
2021/10/23 03:01:19;;;;;;;12.90;2.50;;;6.30;99.90;;;;;;5034646;28;20049;-83
2021/10/23 03:03:45;;;;;;;7.22;2.30;;;6.30;99.90;;;;;;5035211;28;20448;-83
2021/10/23 03:06:11;;;;;;;6.57;1.80;;;6.20;99.90;;;;;;5046282;28;20029;-83
2021/10/23 03:08:37;;;;;;;10.50;1.85;;;6.20;99.90;;;;;;5043000;28;20067;-81
2021/10/23 03:11:04;;;;;;;10.32;2.08;;;6.30;99.90;;;;;;5036082;28;20374;-83
2021/10/23 03:13:29;;;;;;;10.30;2.65;;;6.20;99.90;;;;;;5034164;28;20489;-82
2021/10/23 03:15:56;;;;;;;7.45;2.17;;;6.30;99.90;;;;;;5043938;28;20047;-82
2021/10/23 03:18:22;;;;;;;7.47;2.03;;;6.20;99.90;;;;;;5045787;28;20036;-83
2021/10/23 03:20:48;;;;;;;11.23;2.38;;;6.20;99.90;;;;;;5044774;28;20413;-83
2021/10/23 03:23:16;;;;;;;8.00;2.60;;;6.20;99.90;;;;;;5047177;28;20454;-83
2021/10/23 03:25:45;;;;;;;6.55;3.03;;;6.20;99.90;;;;;;5034568;28;20052;-83
2021/10/23 03:28:10;;;;;;;7.60;2.03;;;6.20;99.90;;;;;;5029390;28;20029;-82
2021/10/23 03:30:36;;;;;;;12.10;2.03;;;6.20;99.90;;;;;;5028168;28;20497;-83
2021/10/23 03:33:02;;;;;;;7.53;2.17;;;6.20;99.90;;;;;;5031200;28;20050;-83
2021/10/23 03:35:28;;;;;;;8.80;3.10;;;6.20;99.90;;;;;;5023547;28;20028;-82
2021/10/23 03:37:53;;;;;;;7.55;2.13;;;6.20;99.90;;;;;;5033950;28;20021;-83
2021/10/23 03:40:19;;;;;;;7.80;2.85;;;6.10;99.90;;;;;;5033257;28;20032;-83
2021/10/23 03:42:44;;;;;;;9.80;2.40;;;6.20;99.90;;;;;;5034431;28;20378;-83
2021/10/23 03:45:10;;;;;;;7.03;2.15;;;6.20;99.90;;;;;;5033886;28;20059;-83
2021/10/23 03:47:36;;;;;;;7.20;2.67;;;6.10;99.90;;;;;;5033280;28;20026;-82
2021/10/23 03:50:04;;;;;;;8.05;3.17;;;6.10;99.90;;;;;;5033748;28;20033;-83
2021/10/23 03:52:30;;;;;;;12.48;2.42;;;6.20;99.90;;;;;;5033713;28;20033;-83
2021/10/23 03:54:55;;;;;;;12.55;2.90;;;6.10;99.90;;;;;;5033224;28;20033;-83
2021/10/23 03:57:21;;;;;;;6.68;2.10;;;6.10;99.90;;;;;;5033347;28;20029;-83
2021/10/23 03:59:47;;;;;;;9.30;2.17;;;6.10;99.90;;;;;;5033705;28;20115;-84
2021/10/23 04:02:13;;;;;;;7.40;2.33;;;6.10;99.90;;;;;;5032468;28;20021;-83
2021/10/23 04:04:38;;;;;;;5.95;2.25;;;6.10;99.90;;;;;;5033640;28;20029;-83
2021/10/23 04:07:04;;;;;;;11.65;2.75;;;6.10;99.90;;;;;;5033451;28;20051;-81
2021/10/23 04:09:30;;;;;;;6.85;2.80;;;6.10;99.90;;;;;;5032606;28;20037;-82
2021/10/23 04:11:55;;;;;;;11.68;2.60;;;6.00;99.90;;;;;;5033916;28;20125;-84
2021/10/23 04:14:21;;;;;;;4.15;2.00;;;6.00;99.90;;;;;;5034032;28;20037;-83
2021/10/23 04:16:47;;;;;;;4.45;2.30;;;6.10;99.90;;;;;;5032834;28;20022;-83
2021/10/23 04:19:12;;;;;;;9.80;2.40;;;6.00;99.90;;;;;;5032547;28;20024;-83
2021/10/23 04:21:38;;;;;;;5.93;2.58;;;6.00;99.90;;;;;;5032725;28;20112;-84
2021/10/23 04:24:04;;;;;;;5.50;2.35;;;5.90;99.90;;;;;;5033201;28;20061;-84
2021/10/23 04:26:29;;;;;;;7.88;2.78;;;5.90;99.90;;;;;;5032509;28;20473;-82
2021/10/23 04:28:55;;;;;;;5.30;2.08;;;6.00;99.90;;;;;;5032731;28;20033;-82
2021/10/23 04:31:20;;;;;;;8.05;2.38;;;6.00;99.90;;;;;;5032485;28;20498;-83
2021/10/23 04:33:46;;;;;;;10.95;2.47;;;6.00;99.90;;;;;;5024040;28;20044;-84
2021/10/23 04:36:12;;;;;;;15.75;2.67;;;6.00;99.90;;;;;;5027323;28;20018;-84
2021/10/23 04:38:37;;;;;;;10.30;2.67;;;6.00;99.90;;;;;;5032557;28;20013;-83
2021/10/23 04:41:04;;;;;;;5.35;2.28;;;6.00;99.90;;;;;;5033255;28;20036;-83
2021/10/23 04:43:29;;;;;;;8.27;3.00;;;6.10;99.90;;;;;;5032052;28;20018;-83
2021/10/23 04:45:55;;;;;;;11.48;2.72;;;6.00;99.90;;;;;;5033478;28;20029;-82
2021/10/23 04:48:20;;;;;;;8.20;2.75;;;6.00;99.90;;;;;;5032584;28;20056;-82
2021/10/23 04:50:46;;;;;;;10.15;2.63;;;6.00;99.90;;;;;;5031954;28;20029;-82
2021/10/23 04:53:12;;;;;;;6.80;2.55;;;6.00;99.90;;;;;;5032943;28;20105;-83
2021/10/23 04:55:37;;;;;;;9.30;2.83;;;5.90;99.90;;;;;;5033225;28;20032;-84
2021/10/23 04:58:03;;;;;;;8.02;2.95;;;5.90;99.90;;;;;;5032085;28;20052;-83
2021/10/23 05:00:28;;;;;;;11.65;3.58;;;5.90;99.90;;;;;;5034454;28;20108;-83
2021/10/23 05:02:54;;;;;;;6.53;3.08;;;5.90;99.90;;;;;;5033263;28;20462;-81
2021/10/23 05:05:20;;;;;;;10.52;3.75;;;5.90;99.90;;;;;;5032180;28;20025;-81
2021/10/23 05:07:46;;;;;;;11.40;4.25;;;5.90;99.90;;;;;;5032713;28;20018;-83
2021/10/23 05:10:13;;;;;;;7.63;3.60;;;5.90;99.90;;;;;;5046164;28;20037;-82
2021/10/23 05:12:39;;;;;;;9.15;3.40;;;5.90;99.90;;;;;;5037352;28;20033;-81
2021/10/23 05:15:06;;;;;;;9.48;2.80;;;5.80;99.90;;;;;;5034420;28;20030;-83
2021/10/23 05:17:31;;;;;;;6.20;2.53;;;5.80;99.90;;;;;;5040177;28;20081;-82
2021/10/23 05:19:57;;;;;;;9.63;3.45;;;5.80;99.90;;;;;;5044298;28;20033;-82
2021/10/23 05:22:22;;;;;;;10.07;3.83;;;5.80;99.90;;;;;;5033355;28;20087;-82
2021/10/23 05:24:48;;;;;;;9.68;3.45;;;5.80;99.90;;;;;;5045779;28;20025;-83
2021/10/23 05:27:14;;;;;;;10.15;3.80;;;5.90;99.90;;;;;;5039379;28;20105;-82
2021/10/23 05:29:40;;;;;;;10.98;5.35;;;5.90;99.90;;;;;;5033190;28;20053;-82
2021/10/23 05:32:06;;;;;;;6.43;3.63;;;6.00;99.90;;;;;;5032024;28;20053;-84
2021/10/23 05:34:32;;;;;;;8.95;3.58;;;6.00;99.90;;;;;;5032054;28;20029;-82
2021/10/23 05:36:57;;;;;;;7.15;3.38;;;6.00;99.90;;;;;;5032440;28;20036;-83
2021/10/23 05:39:23;;;;;;;11.65;3.55;;;5.90;99.90;;;;;;5031760;28;20076;-81
2021/10/23 05:41:49;;;;;;;9.85;3.72;;;5.90;99.90;;;;;;5035820;28;20037;-83
2021/10/23 05:44:15;;;;;;;5.53;3.10;;;5.90;99.90;;;;;;5032679;28;20128;-83
2021/10/23 05:46:40;;;;;;;10.55;3.63;;;5.90;99.90;;;;;;5030444;28;20041;-82
2021/10/23 05:49:06;;;;;;;11.90;4.03;;;5.90;99.90;;;;;;5032888;28;20053;-82
2021/10/23 05:51:31;;;;;;;11.68;5.07;;;6.00;99.90;;;;;;5034015;28;20029;-84
2021/10/23 05:53:57;;;;;;;8.07;3.63;;;6.10;99.90;;;;;;5037248;28;20040;-83
2021/10/23 05:56:22;;;;;;;13.43;4.22;;;6.10;99.90;;;;;;5035062;28;20021;-81
2021/10/23 05:58:48;;;;;;;8.02;3.78;;;6.20;99.90;;;;;;5017109;28;20172;-83
2021/10/23 06:01:14;;;;;;;9.30;5.28;;;6.20;99.90;;;;;;5032754;28;20068;-82
2021/10/23 06:03:40;;;;;;;8.35;3.88;;;6.30;99.90;;;;;;5033931;28;20030;-83
2021/10/23 06:06:08;;;;;;;11.52;4.22;;;6.30;99.90;;;;;;5033801;28;20087;-83
2021/10/23 06:08:35;;;;;;;6.40;4.25;;;6.40;99.90;;;;;;5033764;28;20021;-83
2021/10/23 06:11:01;;;;;;;5.03;3.45;;;6.40;99.90;;;;;;5034929;28;20025;-83
2021/10/23 06:13:27;;;;;;;6.88;4.55;;;6.40;99.90;;;;;;5034718;28;20040;-83
2021/10/23 06:15:53;;;;;;;6.22;3.78;;;6.50;99.90;;;;;;5033350;28;20104;-83
2021/10/23 06:18:19;;;;;;;12.20;5.03;;;6.50;99.90;;;;;;5033784;28;20024;-83
2021/10/23 06:20:45;;;;;;;7.88;5.07;;;6.60;99.90;;;;;;5034521;28;20100;-83
2021/10/23 06:23:12;;;;;;;14.70;6.78;;;6.60;99.90;;;;;;5033567;28;20104;-82
2021/10/23 06:25:37;;;;;;;9.52;4.93;;;6.80;99.90;;;;;;5034297;28;20021;-82
2021/10/23 06:28:04;;;;;;;11.83;5.53;;;6.80;99.90;;;;;;5032977;28;20383;-82
2021/10/23 06:30:30;;;;;;;12.60;6.10;;;6.80;99.90;;;;;;5034452;28;20124;-82
2021/10/23 06:33:05;;;;;;;10.88;5.90;;;6.90;99.90;;;;;;5033981;28;20512;-82
2021/10/23 06:35:30;;;;;;;12.25;6.70;;;7.00;99.90;;;;;;5034207;28;20025;-82
2021/10/23 06:37:56;;;;;;;19.45;7.88;;;7.00;99.90;;;;;;5034836;28;20029;-83
2021/10/23 06:40:22;;;;;;;14.63;8.85;;;7.10;99.90;;;;;;5032112;28;20036;-82
2021/10/23 06:42:48;;;;;;;9.57;6.63;;;7.10;99.90;;;;;;5028787;28;20470;-82
2021/10/23 06:45:14;;;;;;;15.02;6.63;;;7.10;99.90;;;;;;5034026;28;20025;-84
2021/10/23 06:47:44;;;;;;;13.40;6.85;;;7.20;99.90;;;;;;5034877;28;20067;-84
2021/10/23 06:50:11;;;;;;;12.85;7.18;;;7.20;99.90;;;;;;5032601;28;20052;-83
2021/10/23 06:52:36;;;;;;;20.75;8.07;;;7.30;99.90;;;;;;5033770;28;20021;-81
2021/10/23 06:55:03;;;;;;;20.13;9.57;;;7.40;99.90;;;;;;5033440;28;20036;-83
2021/10/23 06:57:29;;;;;;;12.95;8.70;;;7.40;99.90;;;;;;5030447;28;20567;-83
2021/10/23 06:59:54;;;;;;;19.20;9.73;;;7.50;99.90;;;;;;5033277;28;20021;-82
2021/10/23 07:02:20;;;;;;;18.58;9.27;;;7.50;99.90;;;;;;5033338;28;20025;-83
2021/10/23 07:04:46;;;;;;;22.42;10.73;;;7.60;99.90;;;;;;5033767;28;20075;-83
2021/10/23 07:07:11;;;;;;;20.13;10.95;;;7.70;99.90;;;;;;5033713;28;20029;-84
2021/10/23 07:09:37;;;;;;;30.52;11.60;;;7.70;99.90;;;;;;5035319;28;20029;-84
2021/10/23 07:12:03;;;;;;;17.73;10.48;;;7.80;99.90;;;;;;5032372;28;20031;-78
2021/10/23 07:14:28;;;;;;;19.00;10.68;;;7.90;99.90;;;;;;5027605;28;20022;-78
2021/10/23 07:16:54;;;;;;;16.67;9.00;;;7.90;99.90;;;;;;5032231;28;20024;-77
2021/10/23 07:19:22;;;;;;;18.60;10.73;;;8.00;99.90;;;;;;5026008;28;20033;-76
2021/10/23 07:21:48;;;;;;;17.63;10.90;;;8.00;99.90;;;;;;5030591;28;20018;-77
2021/10/23 07:24:17;;;;;;;16.20;9.48;;;8.10;99.90;;;;;;5029537;28;20071;-78
2021/10/23 07:26:42;;;;;;;16.02;8.90;;;8.20;99.90;;;;;;5032735;28;20101;-78
2021/10/23 07:29:09;;;;;;;15.77;8.98;;;8.20;99.90;;;;;;5032540;28;20120;-77
2021/10/23 07:31:34;;;;;;;13.23;9.93;;;8.20;99.90;;;;;;5029040;28;20044;-77
2021/10/23 07:34:00;;;;;;;22.38;10.18;;;8.30;99.90;;;;;;5032995;28;20030;-78
2021/10/23 07:36:27;;;;;;;16.77;9.85;;;8.30;99.90;;;;;;5033237;28;20477;-78
2021/10/23 07:38:53;;;;;;;19.20;10.20;;;8.40;99.90;;;;;;5032854;28;20025;-78
2021/10/23 07:41:18;;;;;;;16.75;9.57;;;8.40;99.90;;;;;;5033265;28;20033;-77
2021/10/23 07:43:44;;;;;;;19.70;9.73;;;8.40;99.90;;;;;;5033539;28;20021;-76
2021/10/23 07:46:09;;;;;;;19.40;12.30;;;8.50;99.90;;;;;;5033038;28;20112;-79
2021/10/23 07:48:36;;;;;;;15.82;10.50;;;8.50;99.90;;;;;;5033360;28;20033;-78
2021/10/23 07:51:05;;;;;;;23.48;10.50;;;8.50;99.90;;;;;;5032944;28;20485;-77
2021/10/23 07:53:31;;;;;;;21.52;10.93;;;8.60;99.90;;;;;;5031251;28;20564;-78
2021/10/23 07:55:57;;;;;;;18.55;8.88;;;8.60;99.90;;;;;;5033318;28;20064;-80
2021/10/23 07:58:22;;;;;;;20.73;10.27;;;8.70;99.90;;;;;;5032538;28;20077;-80
2021/10/23 08:00:51;;;;;;;11.98;9.05;;;8.60;99.90;;;;;;5032815;28;20094;-81
2021/10/23 08:03:17;;;;;;;18.75;9.73;;;8.70;99.90;;;;;;5032884;28;20013;-80
2021/10/23 08:05:42;;;;;;;17.88;10.27;;;8.70;99.90;;;;;;5034844;28;20028;-79
2021/10/23 08:08:08;;;;;;;12.70;9.57;;;8.80;99.90;;;;;;5032977;28;20029;-80
2021/10/23 08:10:34;;;;;;;22.15;11.60;;;8.80;99.90;;;;;;5033401;28;20025;-80
2021/10/23 08:13:02;;;;;;;16.85;10.02;;;8.90;99.90;;;;;;5032353;28;20081;-80
2021/10/23 08:15:28;;;;;;;17.52;10.82;;;9.00;99.90;;;;;;5032365;28;20038;-80
2021/10/23 08:17:58;;;;;;;19.65;10.93;;;9.00;99.90;;;;;;5033298;28;20100;-80
2021/10/23 08:20:26;;;;;;;21.75;11.90;;;9.10;99.90;;;;;;5034877;28;20030;-83
2021/10/23 08:22:53;;;;;;;18.20;10.88;;;9.20;99.90;;;;;;5032734;28;20432;-83
2021/10/23 08:25:21;;;;;;;17.40;11.07;;;9.20;99.90;;;;;;5032760;28;20538;-75
2021/10/23 08:27:47;;;;;;;23.55;12.68;;;9.30;99.90;;;;;;5026346;28;20033;-77
2021/10/23 08:30:16;;;;;;;21.73;12.55;;;9.40;99.90;;;;;;5023337;28;20050;-79
2021/10/23 08:32:43;;;;;;;18.55;11.60;;;9.40;99.90;;;;;;5029412;28;20053;-76
2021/10/23 08:35:10;;;;;;;18.27;12.48;;;9.40;99.90;;;;;;5023001;28;20108;-76
2021/10/23 08:37:36;;;;;;;21.77;13.20;;;9.40;99.90;;;;;;5025106;28;20021;-78
2021/10/23 08:40:04;;;;;;;21.45;12.27;;;9.50;99.90;;;;;;5024473;28;20052;-77
2021/10/23 08:42:30;;;;;;;26.48;14.73;;;9.50;99.90;;;;;;5024319;28;20049;-79
2021/10/23 08:44:59;;;;;;;23.52;14.05;;;9.60;99.90;;;;;;5031192;28;20188;-80
2021/10/23 08:47:28;;;;;;;25.30;14.38;;;9.60;99.90;;;;;;5023184;28;20026;-80
2021/10/23 08:49:57;;;;;;;24.48;14.10;;;9.60;99.90;;;;;;5015539;28;20046;-81
2021/10/23 08:52:24;;;;;;;24.63;12.98;;;9.70;99.90;;;;;;5026087;28;20018;-79
2021/10/23 08:54:50;;;;;;;22.88;14.35;;;9.70;99.90;;;;;;5024404;28;20033;-80
2021/10/23 08:57:16;;;;;;;21.48;15.02;;;9.70;99.90;;;;;;5022418;28;20038;-78
2021/10/23 08:59:44;;;;;;;23.77;13.05;;;9.80;99.90;;;;;;5022403;28;20060;-80
2021/10/23 09:02:10;;;;;;;27.95;14.90;;;9.80;99.90;;;;;;5027178;28;20022;-81
2021/10/23 09:04:37;;;;;;;37.97;15.15;;;9.90;99.90;;;;;;5026449;28;20025;-79
2021/10/23 09:07:12;;;;;;;27.95;15.23;;;9.90;99.90;;;;;;5030132;28;20039;-79
2021/10/23 09:09:45;;;;;;;22.98;13.05;;;9.90;99.90;;;;;;5027050;28;20032;-81
2021/10/23 09:12:19;;;;;;;26.20;14.18;;;9.40;99.90;;;;;;5018504;28;20025;-80
2021/10/23 09:14:45;;;;;;;22.67;13.10;;;10.00;99.90;;;;;;5022461;28;20060;-79
2021/10/23 09:17:13;;;;;;;19.48;13.00;;;10.10;99.90;;;;;;5019621;28;20057;-80
2021/10/23 09:19:45;;;;;;;19.45;13.90;;;10.10;99.90;;;;;;5024186;28;20481;-78
2021/10/23 09:22:32;;;;;;;24.80;13.75;;;10.20;99.90;;;;;;5028222;28;20022;-79
2021/10/23 09:25:23;;;;;;;24.95;13.82;;;10.20;99.90;;;;;;5027531;28;20444;-80
2021/10/23 09:27:59;;;;;;;20.02;13.07;;;10.30;99.90;;;;;;5029882;28;20026;-79
2021/10/23 09:30:37;;;;;;;16.73;12.27;;;10.30;99.90;;;;;;5030454;28;20033;-81
2021/10/23 09:33:09;;;;;;;22.00;11.50;;;10.40;99.90;;;;;;5031886;28;20064;-81
2021/10/23 09:35:48;;;;;;;17.08;12.10;;;10.40;99.90;;;;;;5028172;28;20048;-81
2021/10/23 09:38:17;;;;;;;17.67;11.05;;;10.40;99.90;;;;;;5024565;28;20013;-81
2021/10/23 09:40:48;;;;;;;20.67;12.25;;;10.40;99.90;;;;;;5027262;28;20559;-82
2021/10/23 09:43:15;;;;;;;;;;;10.50;99.90;;;;;;5023447;28;20393;-81
2021/10/23 09:45:59;;;;;;;19.08;12.50;;;10.50;99.90;;;;;;5029592;28;19913;-80
2021/10/23 09:48:43;;;;;;;17.98;11.32;;;10.60;99.90;;;;;;5026239;28;20033;-80
2021/10/23 09:51:28;;;;;;;19.67;11.68;;;10.60;99.90;;;;;;5022873;28;20022;-79
2021/10/23 09:53:57;;;;;;;15.63;10.00;;;10.60;99.90;;;;;;5024442;28;20026;-80
2021/10/23 09:56:50;;;;;;;19.10;12.23;;;10.70;99.90;;;;;;5028775;28;20033;-83
2021/10/23 09:59:27;;;;;;;16.67;11.07;;;10.70;99.90;;;;;;5025741;28;20112;-81
2021/10/23 10:01:56;;;;;;;14.57;11.05;;;10.80;99.90;;;;;;5033799;28;20025;-82
2021/10/23 10:04:23;;;;;;;21.23;11.57;;;10.80;99.90;;;;;;5023953;28;20517;-81
2021/10/23 10:06:50;;;;;;;18.75;11.25;;;10.90;99.90;;;;;;5025237;28;20100;-82
2021/10/23 10:09:20;;;;;;;17.88;12.68;;;11.00;99.90;;;;;;5027977;28;20077;-83
2021/10/23 10:11:50;;;;;;;18.38;11.63;;;10.90;99.90;;;;;;5025295;28;20068;-82
2021/10/23 10:14:17;;;;;;;20.13;11.50;;;11.10;99.90;;;;;;5026166;28;20064;-82
2021/10/23 10:16:46;;;;;;;13.45;10.85;;;11.10;99.90;;;;;;5022333;28;20030;-84
2021/10/23 10:19:13;;;;;;;15.90;12.40;;;11.20;99.90;;;;;;5031532;28;20044;-82
2021/10/23 10:21:41;;;;;;;20.50;12.27;;;11.20;99.90;;;;;;5029730;28;20020;-83
2021/10/23 10:24:20;;;;;;;16.52;11.52;;;11.20;99.90;;;;;;5036698;28;20018;-84
2021/10/23 10:27:00;;;;;;;16.35;11.10;;;11.20;99.90;;;;;;5033574;28;20033;-83
2021/10/23 10:30:00;;;;;;;16.85;10.98;;;11.20;99.90;;;;;;5033925;28;20037;-81
2021/10/23 10:32:39;;;;;;;18.92;12.18;;;11.30;99.90;;;;;;5037570;28;20041;-83
2021/10/23 10:35:22;;;;;;;18.45;12.60;;;11.30;99.90;;;;;;5033961;28;20056;-81
2021/10/23 10:43:19;;;;;;;20.58;11.05;;;11.50;99.90;;;;;;5037961;28;20389;-82
2021/10/23 10:45:47;;;;;;;14.35;10.82;;;11.50;99.90;;;;;;5033382;28;20105;-82
2021/10/23 10:48:37;;;;;;;13.27;10.32;;;11.60;99.90;;;;;;5032900;28;20052;-81
2021/10/23 10:51:05;;;;;;;17.63;10.20;;;11.60;99.90;;;;;;5035317;28;20038;-81
2021/10/23 10:53:42;;;;;;;15.25;10.38;;;11.70;99.90;;;;;;5034617;28;20025;-80
2021/10/23 10:56:09;;;;;;;15.95;10.30;;;11.70;99.90;;;;;;5034125;28;20025;-80
2021/10/23 10:58:47;;;;;;;14.55;10.93;;;11.80;99.90;;;;;;5034579;28;20513;-79
2021/10/23 11:01:21;;;;;;;13.73;10.43;;;11.80;99.90;;;;;;5032381;28;20500;-79
2021/10/23 11:03:56;;;;;;;15.27;10.35;;;11.90;99.90;;;;;;5033606;28;20104;-80
2021/10/23 11:06:34;;;;;;;14.52;9.52;;;11.90;99.90;;;;;;5033330;28;20018;-80
2021/10/23 11:09:15;;;;;;;10.98;8.77;;;12.00;99.90;;;;;;5032841;28;20022;-79
2021/10/23 11:11:49;;;;;;;11.25;8.75;;;12.00;99.90;;;;;;5034881;28;20026;-80
2021/10/23 11:14:21;;;;;;;12.60;8.25;;;12.00;99.90;;;;;;5028899;28;20473;-79
2021/10/23 11:16:53;;;;;;;12.55;9.15;;;12.10;99.90;;;;;;5015477;28;20029;-80
2021/10/23 11:19:25;;;;;;;11.32;8.63;;;12.10;99.90;;;;;;5032784;28;20017;-80
2021/10/23 11:21:51;;;;;;;15.77;9.13;;;12.10;99.90;;;;;;5035484;28;20029;-81
2021/10/23 11:24:17;;;;;;;10.18;8.07;;;12.20;99.90;;;;;;5039354;28;20018;-79
2021/10/23 11:26:52;;;;;;;9.40;7.65;;;12.20;99.90;;;;;;5041671;28;20031;-81
2021/10/23 11:29:20;;;;;;;12.68;8.68;;;12.20;99.90;;;;;;5034552;28;20028;-80
2021/10/23 11:31:45;;;;;;;12.90;7.93;;;12.20;99.90;;;;;;5033063;28;20077;-80
2021/10/23 11:34:29;;;;;;;11.70;7.53;;;12.30;99.90;;;;;;5029852;28;20040;-81
2021/10/23 11:37:11;;;;;;;11.52;7.43;;;12.30;99.90;;;;;;5034092;28;20021;-81
2021/10/23 11:39:41;;;;;;;11.80;7.85;;;12.40;99.90;;;;;;5033514;28;20025;-80
2021/10/23 11:42:29;;;;;;;12.40;7.28;;;12.40;99.90;;;;;;5034169;28;20021;-81
2021/10/23 11:45:03;;;;;;;11.65;9.02;;;12.80;99.90;;;;;;5033296;28;20381;-80
2021/10/23 11:47:29;;;;;;;12.30;8.10;;;12.40;99.90;;;;;;5025736;28;20045;-79
2021/10/23 11:49:59;;;;;;;8.85;7.25;;;12.50;99.90;;;;;;5033601;28;20033;-79
2021/10/23 11:52:26;;;;;;;12.70;7.72;;;12.50;99.90;;;;;;5032719;28;20013;-80
2021/10/23 11:54:54;;;;;;;12.00;8.07;;;12.60;99.90;;;;;;5033596;28;20086;-79
2021/10/23 11:57:38;;;;;;;13.95;8.23;;;12.60;99.90;;;;;;5033061;28;20045;-80
2021/10/23 12:00:12;;;;;;;9.70;7.82;;;12.60;99.90;;;;;;5032238;28;20049;-79
2021/10/23 12:02:55;;;;;;;8.65;7.78;;;12.60;99.90;;;;;;5031680;28;20373;-79
2021/10/23 12:05:36;;;;;;;11.57;6.93;;;12.60;99.90;;;;;;5032588;28;20470;-78
2021/10/23 12:08:33;;;;;;;11.75;8.43;;;12.70;99.90;;;;;;5033640;28;20480;-75
2021/10/23 12:11:06;;;;;;;8.32;7.20;;;12.70;99.90;;;;;;5018895;28;20037;-76
2021/10/23 12:13:49;;;;;;;9.15;7.60;;;12.80;99.90;;;;;;5031467;28;20389;-76
2021/10/23 12:16:19;;;;;;;14.07;8.18;;;12.80;99.90;;;;;;5029957;28;20025;-79
2021/10/23 12:18:46;;;;;;;11.07;7.07;;;12.90;99.90;;;;;;5032442;28;20026;-78
2021/10/23 12:21:17;;;;;;;8.55;7.50;;;12.90;99.90;;;;;;5029367;28;20021;-79
2021/10/23 12:23:50;;;;;;;9.05;6.80;;;12.80;99.90;;;;;;5032557;28;20025;-79
2021/10/23 12:26:17;;;;;;;8.63;6.25;;;12.90;99.90;;;;;;5032307;28;20439;-79
2021/10/23 12:29:01;;;;;;;11.02;7.10;;;12.90;99.90;;;;;;5031286;28;20469;-81
2021/10/23 12:31:47;;;;;;;12.48;7.28;;;12.90;99.90;;;;;;5031102;28;20036;-79
2021/10/23 12:34:12;;;;;;;10.80;6.82;;;12.90;99.90;;;;;;5031017;28;20022;-78
2021/10/23 12:36:53;;;;;;;9.88;6.78;;;12.90;99.90;;;;;;5032189;28;20496;-78
2021/10/23 12:39:25;;;;;;;9.55;7.07;;;12.90;99.90;;;;;;5031776;28;20359;-80
2021/10/23 12:41:50;;;;;;;11.38;6.95;;;13.00;99.90;;;;;;5028614;28;20022;-81
2021/10/23 12:44:23;;;;;;;15.55;7.50;;;13.00;99.90;;;;;;5031874;28;20029;-79
2021/10/23 12:46:50;;;;;;;7.45;6.63;;;13.00;99.90;;;;;;5031119;28;20025;-81
2021/10/23 12:49:15;;;;;;;11.02;7.32;;;13.10;99.90;;;;;;5031226;28;20558;-80
2021/10/23 12:51:41;;;;;;;8.85;6.55;;;13.10;99.90;;;;;;5032147;28;20168;-81
2021/10/23 12:54:07;;;;;;;10.10;5.82;;;13.20;99.90;;;;;;5031205;28;20104;-81
2021/10/23 12:56:33;;;;;;;9.38;6.97;;;13.30;99.90;;;;;;5033684;28;20018;-80